Time;durP1;ratioP1;P1;durP2;ratioP2;P2;SDS_P1;SDS_P2;PMS_P1;PMS_P2;Temp;Humidity;BMP_temperature;BMP_pressure;BME280_temperature;BME280_humidity;BME280_pressure;Samples;Min_cycle;Max_cycle;Signal;HPM_P1;HPM_P2
2022/03/19 00:01:54;;;;;;;;;;;22.20;36.40;;;;;;6337753;27;19931;-55
2022/03/19 00:04:56;;;;;;;;;;;21.70;36.20;;;;;;6335490;27;19931;-54
2022/03/19 00:07:57;;;;;;;;;;;21.60;36.20;;;;;;6319860;27;19931;-55
2022/03/19 00:11:00;;;;;;;;;;;21.90;36.30;;;;;;6322265;27;20050;-55
2022/03/19 00:14:02;;;;;;;;;;;21.70;36.20;;;;;;6323191;27;20939;-53
2022/03/19 00:17:03;;;;;;;;;;;21.80;36.10;;;;;;6328364;27;20084;-55
2022/03/19 00:20:05;;;;;;;;;;;21.60;35.90;;;;;;6324211;27;19962;-51
2022/03/19 00:23:07;;;;;;;;;;;21.90;36.20;;;;;;6320789;27;20033;-52
2022/03/19 00:26:09;;;;;;;;;;;21.50;35.90;;;;;;6323649;27;20805;-54
2022/03/19 00:29:10;;;;;;;;;;;21.40;36.00;;;;;;6321160;27;20030;-51
2022/03/19 00:32:12;;;;;;;;;;;22.00;36.10;;;;;;6322289;27;20007;-55
2022/03/19 00:35:13;;;;;;;;;;;21.70;36.20;;;;;;6315020;27;19938;-53
2022/03/19 00:38:15;;;;;;;;;;;21.40;36.10;;;;;;6302730;27;19924;-52
2022/03/19 00:41:17;;;;;;;;;;;21.90;36.30;;;;;;6318014;27;19970;-54
2022/03/19 00:44:21;;;;;;;;;;;21.40;35.90;;;;;;6323424;27;20042;-51
2022/03/19 00:47:23;;;;;;;;;;;22.40;36.40;;;;;;6320840;27;20813;-55
2022/03/19 00:50:24;;;;;;;;;;;21.40;36.00;;;;;;6304048;27;20049;-54
2022/03/19 00:53:26;;;;;;;;;;;21.20;36.00;;;;;;6307958;27;19933;-52
2022/03/19 00:56:28;;;;;;;;;;;21.50;36.10;;;;;;6321842;27;20045;-55
2022/03/19 00:59:29;;;;;;;;;;;21.70;36.20;;;;;;6323138;27;20090;-56
2022/03/19 01:02:30;;;;;;;;;;;22.00;36.10;;;;;;6319673;27;20853;-55
2022/03/19 01:05:32;;;;;;;;;;;21.40;36.00;;;;;;6326635;27;20766;-55
2022/03/19 01:08:33;;;;;;;;;;;21.50;36.00;;;;;;6326747;27;19978;-55
2022/03/19 01:11:35;;;;;;;;;;;21.60;36.20;;;;;;6329956;27;19931;-52
2022/03/19 01:14:37;;;;;;;;;;;21.50;36.10;;;;;;6326795;27;19955;-55
2022/03/19 01:17:39;;;;;;;;;;;21.60;36.10;;;;;;6345503;27;20038;-49
2022/03/19 01:20:41;;;;;;;;;;;21.70;36.20;;;;;;6323870;27;20025;-53
2022/03/19 01:23:42;;;;;;;;;;;21.80;36.20;;;;;;6325150;27;19978;-55
2022/03/19 01:26:44;;;;;;;;;;;21.50;36.20;;;;;;6329737;27;19926;-54
2022/03/19 01:29:45;;;;;;;;;;;21.50;36.30;;;;;;6329556;27;20038;-56
2022/03/19 01:32:47;;;;;;;;;;;21.90;36.40;;;;;;6328123;27;20838;-51
2022/03/19 01:35:48;;;;;;;;;;;21.50;36.00;;;;;;6324690;27;19939;-52
2022/03/19 01:38:50;;;;;;;;;;;21.50;36.30;;;;;;6324923;27;19931;-51
2022/03/19 01:41:52;;;;;;;;;;;21.60;36.30;;;;;;6326414;27;20025;-57
2022/03/19 01:44:54;;;;;;;;;;;21.50;36.10;;;;;;6325776;27;19927;-50
2022/03/19 01:47:56;;;;;;;;;;;21.40;36.00;;;;;;6328870;27;19931;-52
2022/03/19 01:50:57;;;;;;;;;;;21.30;36.10;;;;;;6325550;27;19923;-56
2022/03/19 01:53:59;;;;;;;;;;;21.50;36.20;;;;;;6327573;27;19945;-52
2022/03/19 01:57:01;;;;;;;;;;;21.30;36.00;;;;;;6327552;27;20816;-52
2022/03/19 02:00:04;;;;;;;;;;;21.50;36.70;;;;;;6338745;27;20049;-54
2022/03/19 02:03:12;;;;;;;;;;;21.80;36.20;;;;;;6325277;27;20941;-52
2022/03/19 02:06:15;;;;;;;;;;;21.40;36.00;;;;;;6328444;27;20776;-51
2022/03/19 02:09:16;;;;;;;;;;;21.60;35.90;;;;;;6326323;27;20918;-53
2022/03/19 02:12:18;;;;;;;;;;;21.60;36.10;;;;;;6322915;27;20042;-53
2022/03/19 02:15:20;;;;;;;;;;;21.20;35.90;;;;;;6321938;27;19931;-51
2022/03/19 02:18:22;;;;;;;;;;;21.60;36.00;;;;;;6325682;27;21532;-54
2022/03/19 02:21:23;;;;;;;;;;;21.20;36.00;;;;;;6327904;27;19927;-53
2022/03/19 02:27:39;;;;;;;;;;;21.50;36.20;;;;;;6325503;27;19927;-52
2022/03/19 02:30:42;;;;;;;;;;;21.30;35.90;;;;;;6326018;27;19927;-54
2022/03/19 02:33:44;;;;;;;;;;;21.70;35.80;;;;;;6308331;27;19931;-49
2022/03/19 02:36:45;;;;;;;;;;;21.60;36.20;;;;;;6306418;27;20869;-53
2022/03/19 02:40:07;;;;;;;;;;;21.70;36.00;;;;;;6327864;27;19932;-53
2022/03/19 02:43:09;;;;;;;;;;;21.70;36.20;;;;;;6328408;27;19974;-53
2022/03/19 02:46:11;;;;;;;;;;;21.30;36.00;;;;;;6325430;27;19927;-54
2022/03/19 02:49:12;;;;;;;;;;;21.30;35.80;;;;;;6331947;27;19978;-54
2022/03/19 02:52:13;;;;;;;;;;;21.10;36.00;;;;;;6324660;27;19923;-55
2022/03/19 02:55:15;;;;;;;;;;;21.30;36.20;;;;;;6327812;27;19973;-53
2022/03/19 02:58:17;;;;;;;;;;;21.20;36.00;;;;;;6327892;27;20027;-51
2022/03/19 03:01:18;;;;;;;;;;;21.00;35.60;;;;;;6329267;27;20073;-50
2022/03/19 03:04:21;;;;;;;;;;;21.90;36.40;;;;;;6327412;27;19927;-51
2022/03/19 03:07:23;;;;;;;;;;;21.60;36.20;;;;;;6327751;27;19938;-55
2022/03/19 03:10:26;;;;;;;;;;;21.50;36.20;;;;;;6324993;27;20999;-52
2022/03/19 03:13:27;;;;;;;;;;;20.90;35.80;;;;;;6329874;27;20098;-53
2022/03/19 03:16:29;;;;;;;;;;;21.10;36.10;;;;;;6322360;27;20095;-52
2022/03/19 03:19:32;;;;;;;;;;;21.00;35.90;;;;;;6316501;27;20717;-51
2022/03/19 03:22:36;;;;;;;;;;;22.00;36.20;;;;;;6312085;27;20319;-52
2022/03/19 03:25:38;;;;;;;;;;;21.40;36.10;;;;;;6315809;27;20446;-53
2022/03/19 03:28:40;;;;;;;;;;;21.00;35.80;;;;;;6318375;27;20310;-53
2022/03/19 03:31:41;;;;;;;;;;;21.40;36.20;;;;;;6318628;27;20735;-52
2022/03/19 03:34:43;;;;;;;;;;;21.80;36.30;;;;;;6316973;27;20771;-49
2022/03/19 03:37:44;;;;;;;;;;;21.60;36.30;;;;;;6315087;27;19966;-53
2022/03/19 03:40:46;;;;;;;;;;;20.80;36.00;;;;;;6321596;27;19987;-51
2022/03/19 03:43:47;;;;;;;;;;;21.60;36.10;;;;;;6331626;27;19927;-51
2022/03/19 03:46:49;;;;;;;;;;;21.40;36.20;;;;;;6319997;27;19991;-48
2022/03/19 03:49:52;;;;;;;;;;;21.40;36.00;;;;;;6317080;27;20454;-50
2022/03/19 03:52:53;;;;;;;;;;;21.10;35.80;;;;;;6317941;27;20053;-54
2022/03/19 03:55:56;;;;;;;;;;;21.20;36.00;;;;;;6320578;27;20246;-53
2022/03/19 03:58:58;;;;;;;;;;;21.00;35.80;;;;;;6316504;27;20000;-50
2022/03/19 04:01:59;;;;;;;;;;;21.50;36.30;;;;;;6315688;27;20328;-54
2022/03/19 04:05:01;;;;;;;;;;;21.40;36.00;;;;;;6321631;27;20906;-51
2022/03/19 04:08:03;;;;;;;;;;;21.30;36.20;;;;;;6318016;27;19934;-48
2022/03/19 04:11:05;;;;;;;;;;;21.30;36.00;;;;;;6321244;27;19941;-54
2022/03/19 04:14:07;;;;;;;;;;;21.20;36.00;;;;;;6322766;27;21146;-50
2022/03/19 04:17:09;;;;;;;;;;;21.20;36.20;;;;;;6323417;27;20046;-54
2022/03/19 04:20:11;;;;;;;;;;;21.10;35.80;;;;;;6322866;27;20033;-50
2022/03/19 04:23:13;;;;;;;;;;;21.10;35.90;;;;;;6321690;27;20480;-51
2022/03/19 04:26:15;;;;;;;;;;;21.20;36.00;;;;;;6321218;27;20364;-54
2022/03/19 04:29:16;;;;;;;;;;;20.80;35.90;;;;;;6326187;27;19931;-55
2022/03/19 04:32:18;;;;;;;;;;;21.00;36.10;;;;;;6305645;27;19931;-50
2022/03/19 04:38:38;;;;;;;;;;;21.00;35.90;;;;;;6321540;27;20273;-53
2022/03/19 04:41:41;;;;;;;;;;;20.90;36.00;;;;;;6320377;27;20617;-54
2022/03/19 04:44:42;;;;;;;;;;;21.70;36.20;;;;;;6321835;27;20103;-51
2022/03/19 04:47:44;;;;;;;;;;;21.40;36.30;;;;;;6322051;27;20380;-55
2022/03/19 04:50:46;;;;;;;;;;;21.30;36.10;;;;;;6319837;27;20050;-54
2022/03/19 04:53:50;;;;;;;;;;;20.90;36.00;;;;;;6321169;27;20854;-51
2022/03/19 04:56:52;;;;;;;;;;;21.00;36.00;;;;;;6316479;27;20654;-51
2022/03/19 04:59:53;;;;;;;;;;;21.40;36.30;;;;;;6315271;27;20305;-53
2022/03/19 05:02:55;;;;;;;;;;;20.90;36.00;;;;;;6319677;27;20397;-53
2022/03/19 05:05:56;;;;;;;;;;;21.40;36.30;;;;;;6318113;27;20534;-50
2022/03/19 05:12:10;;;;;;;;;;;21.00;35.70;;;;;;6317928;27;20590;-51
2022/03/19 05:15:12;;;;;;;;;;;20.70;35.90;;;;;;6319674;27;20565;-50
2022/03/19 05:18:13;;;;;;;;;;;20.70;36.00;;;;;;6296221;27;20035;-50
2022/03/19 05:21:15;;;;;;;;;;;21.10;36.00;;;;;;6312503;27;20241;-54
2022/03/19 05:24:16;;;;;;;;;;;20.90;36.20;;;;;;6314050;27;20063;-49
2022/03/19 05:27:18;;;;;;;;;;;20.90;36.20;;;;;;6313235;27;20224;-54
2022/03/19 05:30:19;;;;;;;;;;;21.10;36.20;;;;;;6317676;27;19927;-51
2022/03/19 05:34:29;;;;;;;;;;;21.20;36.20;;;;;;6297318;27;20066;-53
2022/03/19 05:36:44;;;;;;;;;;;21.10;35.80;;;;;;6298299;27;20157;-50
2022/03/19 05:39:45;;;;;;;;;;;20.90;36.10;;;;;;6303086;27;19986;-51
2022/03/19 05:42:47;;;;;;;;;;;21.20;36.30;;;;;;6319316;27;20257;-52
2022/03/19 05:45:49;;;;;;;;;;;20.90;36.00;;;;;;6320549;27;20739;-53
2022/03/19 05:48:50;;;;;;;;;;;21.30;36.10;;;;;;6321740;27;19934;-49
2022/03/19 05:51:52;;;;;;;;;;;21.40;36.20;;;;;;6321204;27;20250;-52
2022/03/19 05:54:53;;;;;;;;;;;21.20;36.30;;;;;;6317519;27;19967;-52
2022/03/19 05:57:55;;;;;;;;;;;21.10;36.30;;;;;;6315976;27;20126;-52
2022/03/19 06:00:56;;;;;;;;;;;20.70;35.90;;;;;;6319463;27;19975;-51
2022/03/19 06:03:59;;;;;;;;;;;20.90;35.50;;;;;;6308086;27;20692;-55
2022/03/19 06:07:00;;;;;;;;;;;21.60;36.50;;;;;;6298492;27;20260;-50
2022/03/19 06:10:02;;;;;;;;;;;21.10;36.30;;;;;;6319176;27;19956;-51
2022/03/19 06:13:04;;;;;;;;;;;20.60;36.00;;;;;;6319444;27;20276;-50
2022/03/19 06:16:05;;;;;;;;;;;21.00;36.00;;;;;;6324037;27;20058;-53
2022/03/19 06:19:07;;;;;;;;;;;20.70;35.90;;;;;;6297743;27;20046;-54
2022/03/19 06:22:08;;;;;;;;;;;20.80;35.90;;;;;;6313226;27;20223;-50
2022/03/19 06:25:10;;;;;;;;;;;20.60;35.90;;;;;;6317905;27;19933;-51
2022/03/19 06:28:11;;;;;;;;;;;21.30;36.30;;;;;;6318322;27;19941;-50
2022/03/19 06:31:13;;;;;;;;;;;20.50;35.80;;;;;;6319268;27;19931;-50
2022/03/19 06:34:14;;;;;;;;;;;20.60;36.00;;;;;;6316885;27;20724;-50
2022/03/19 06:37:23;;;;;;;;;;;20.70;35.90;;;;;;6317268;27;20176;-50
2022/03/19 06:40:25;;;;;;;;;;;20.90;36.20;;;;;;6318622;27;20073;-53
2022/03/19 06:43:27;;;;;;;;;;;21.10;36.20;;;;;;6316569;27;20151;-52
2022/03/19 06:46:29;;;;;;;;;;;20.60;35.80;;;;;;6319607;27;20050;-53
2022/03/19 06:49:30;;;;;;;;;;;20.70;36.10;;;;;;6318483;27;20293;-51
2022/03/19 06:52:32;;;;;;;;;;;20.70;35.60;;;;;;6310943;27;19936;-51
2022/03/19 06:55:34;;;;;;;;;;;21.20;36.00;;;;;;6315783;27;19927;-50
2022/03/19 06:58:36;;;;;;;;;;;20.90;36.20;;;;;;6315525;27;19982;-50
2022/03/19 07:01:37;;;;;;;;;;;20.90;36.10;;;;;;6313143;27;19973;-48
2022/03/19 07:04:39;;;;;;;;;;;20.60;35.90;;;;;;6317235;27;19934;-52
2022/03/19 07:07:41;;;;;;;;;;;21.20;36.10;;;;;;6315347;27;19931;-51
2022/03/19 07:10:42;;;;;;;;;;;21.00;36.10;;;;;;6316872;27;20046;-52
2022/03/19 07:13:44;;;;;;;;;;;20.70;36.00;;;;;;6316767;27;20080;-50
2022/03/19 07:16:46;;;;;;;;;;;21.00;36.00;;;;;;6321950;27;19981;-52
2022/03/19 07:19:47;;;;;;;;;;;20.70;35.90;;;;;;6324399;27;20200;-51
2022/03/19 07:22:49;;;;;;;;;;;21.00;36.10;;;;;;6318858;27;19966;-48
2022/03/19 07:25:51;;;;;;;;;;;20.70;35.90;;;;;;6322631;27;19938;-53
2022/03/19 07:28:53;;;;;;;;;;;20.80;36.00;;;;;;6318130;27;20502;-54
2022/03/19 07:31:54;;;;;;;;;;;20.70;35.90;;;;;;6321124;27;20791;-50
2022/03/19 07:34:56;;;;;;;;;;;20.80;35.90;;;;;;6318034;27;19923;-52
2022/03/19 07:37:57;;;;;;;;;;;21.10;36.00;;;;;;6324180;27;19927;-49
2022/03/19 07:44:16;;;;;;;;;;;20.70;35.70;;;;;;6294625;27;19927;-51
2022/03/19 07:47:18;;;;;;;;;;;20.90;35.80;;;;;;6320586;27;20136;-54
2022/03/19 07:50:20;;;;;;;;;;;20.70;35.60;;;;;;6321175;27;20776;-54
2022/03/19 07:53:22;;;;;;;;;;;21.00;35.80;;;;;;6313775;27;20960;-52
2022/03/19 07:56:24;;;;;;;;;;;20.90;35.70;;;;;;6317438;27;20147;-51
2022/03/19 07:59:27;;;;;;;;;;;21.30;36.00;;;;;;6329027;27;20346;-52
2022/03/19 08:02:28;;;;;;;;;;;21.10;35.80;;;;;;6319309;27;19940;-51
2022/03/19 08:05:30;;;;;;;;;;;20.70;35.70;;;;;;6318437;27;20707;-51
2022/03/19 08:08:34;;;;;;;;;;;21.20;35.80;;;;;;6316487;27;20883;-51
2022/03/19 08:11:36;;;;;;;;;;;21.10;35.90;;;;;;6314807;27;19927;-53
2022/03/19 08:14:38;;;;;;;;;;;21.30;35.50;;;;;;6314447;27;20451;-52
2022/03/19 08:17:41;;;;;;;;;;;21.10;35.80;;;;;;6316326;27;20336;-52
2022/03/19 08:20:44;;;;;;;;;;;21.50;36.00;;;;;;6317901;27;20707;-52
2022/03/19 08:23:46;;;;;;;;;;;20.70;35.70;;;;;;6319206;27;20178;-53
2022/03/19 08:26:47;;;;;;;;;;;20.80;35.60;;;;;;6303200;27;20091;-53
2022/03/19 08:29:49;;;;;;;;;;;21.20;36.00;;;;;;6328002;27;20042;-54
2022/03/19 08:32:50;;;;;;;;;;;20.70;35.70;;;;;;6325026;27;19938;-53
2022/03/19 08:35:52;;;;;;;;;;;21.20;35.80;;;;;;6318431;27;20930;-53
2022/03/19 08:42:09;;;;;;;;;;;20.80;35.10;;;;;;6319275;27;20004;-51
2022/03/19 08:45:11;;;;;;;;;;;21.30;35.60;;;;;;6318524;27;20394;-50
2022/03/19 08:48:13;;;;;;;;;;;21.10;35.20;;;;;;6323021;27;19939;-52
2022/03/19 08:54:29;;;;;;;;;;;20.90;35.00;;;;;;6320547;27;20824;-53
2022/03/19 08:57:31;;;;;;;;;;;20.80;35.90;;;;;;6328443;27;19974;-54
2022/03/19 09:00:33;;;;;;;;;;;21.30;36.20;;;;;;6325959;27;19923;-49
2022/03/19 09:03:34;;;;;;;;;;;20.90;35.90;;;;;;6328620;27;19966;-53
2022/03/19 09:06:36;;;;;;;;;;;21.20;35.90;;;;;;6326963;27;19923;-51
2022/03/19 09:09:37;;;;;;;;;;;21.40;35.90;;;;;;6326228;27;19931;-49
2022/03/19 09:12:59;;;;;;;;;;;21.10;35.80;;;;;;6305002;27;19930;-51
2022/03/19 09:16:01;;;;;;;;;;;21.30;35.90;;;;;;6328534;27;20045;-51
2022/03/19 09:19:02;;;;;;;;;;;21.30;35.60;;;;;;6315562;27;19975;-49
2022/03/19 09:22:04;;;;;;;;;;;21.50;35.70;;;;;;6314033;27;20225;-54
2022/03/19 09:25:06;;;;;;;;;;;21.30;35.50;;;;;;6314981;27;20417;-49
2022/03/19 09:28:07;;;;;;;;;;;21.30;35.60;;;;;;6320376;27;20110;-52
2022/03/19 09:31:09;;;;;;;;;;;21.30;35.60;;;;;;6319815;27;20364;-49
2022/03/19 09:34:11;;;;;;;;;;;21.30;35.50;;;;;;6327733;27;20011;-54
2022/03/19 09:37:12;;;;;;;;;;;21.90;35.90;;;;;;6326752;27;20379;-59
2022/03/19 09:40:14;;;;;;;;;;;21.60;35.50;;;;;;6332662;27;20180;-51
2022/03/19 09:43:15;;;;;;;;;;;21.20;35.40;;;;;;6320156;27;20504;-50
2022/03/19 09:46:17;;;;;;;;;;;21.10;35.30;;;;;;6323027;27;20362;-49
2022/03/19 09:49:19;;;;;;;;;;;22.10;35.70;;;;;;6326058;27;20172;-50
2022/03/19 09:52:21;;;;;;;;;;;21.60;35.20;;;;;;6321120;27;19934;-50
2022/03/19 09:55:26;;;;;;;;;;;21.70;35.20;;;;;;6322355;27;20353;-48
2022/03/19 09:58:27;;;;;;;;;;;21.60;35.10;;;;;;6303371;27;19927;-52
2022/03/19 10:01:31;;;;;;;;;;;21.30;35.10;;;;;;6315682;27;20310;-52
2022/03/19 10:04:32;;;;;;;;;;;21.70;35.50;;;;;;6321624;27;20158;-51
2022/03/19 10:10:49;;;;;;;;;;;21.90;35.20;;;;;;6319240;27;19939;-50
2022/03/19 10:13:52;;;;;;;;;;;21.60;35.10;;;;;;6319913;27;19927;-48
2022/03/19 10:16:57;;;;;;;;;;;21.80;35.30;;;;;;6322377;27;20258;-51
2022/03/19 10:20:00;;;;;;;;;;;21.80;35.10;;;;;;6317633;27;19931;-49
2022/03/19 10:23:01;;;;;;;;;;;21.60;34.90;;;;;;6297271;27;20228;-50
2022/03/19 10:26:03;;;;;;;;;;;21.50;34.50;;;;;;6315555;27;19973;-49
2022/03/19 10:29:05;;;;;;;;;;;21.90;34.90;;;;;;6329236;27;20290;-49
2022/03/19 10:32:07;;;;;;;;;;;22.00;35.00;;;;;;6321084;27;19927;-48
2022/03/19 10:35:24;;;;;;;;;;;21.60;34.60;;;;;;6313709;27;20950;-50
2022/03/19 10:38:26;;;;;;;;;;;21.60;34.80;;;;;;6301804;27;20530;-47
2022/03/19 10:41:33;;;;;;;;;;;22.00;34.60;;;;;;6317198;27;19994;-48
2022/03/19 10:44:38;;;;;;;;;;;21.50;34.30;;;;;;6320059;27;20053;-52
2022/03/19 10:47:41;;;;;;;;;;;22.10;34.80;;;;;;6319581;27;20272;-53
2022/03/19 10:50:42;;;;;;;;;;;21.80;34.50;;;;;;6297063;27;21061;-51
2022/03/19 10:53:45;;;;;;;;;;;21.80;34.70;;;;;;6314424;27;20215;-53
2022/03/19 10:56:47;;;;;;;;;;;22.00;34.80;;;;;;6318918;27;20298;-51
2022/03/19 10:59:49;;;;;;;;;;;21.90;34.60;;;;;;6317063;27;20843;-50
2022/03/19 11:02:54;;;;;;;;;;;22.10;35.00;;;;;;6318931;27;20719;-51
2022/03/19 11:05:56;;;;;;;;;;;21.90;34.50;;;;;;6320285;27;19971;-50
2022/03/19 11:09:01;;;;;;;;;;;22.00;34.60;;;;;;6296128;27;20415;-50
2022/03/19 11:12:07;;;;;;;;;;;22.30;34.70;;;;;;6316831;27;20090;-48
2022/03/19 11:15:09;;;;;;;;;;;22.10;34.60;;;;;;6317618;27;19938;-52
2022/03/19 11:18:11;;;;;;;;;;;21.90;34.50;;;;;;6317613;27;20218;-52
2022/03/19 11:21:14;;;;;;;;;;;22.20;34.70;;;;;;6330983;27;20171;-49
2022/03/19 11:24:22;;;;;;;;;;;22.20;34.60;;;;;;6315199;27;19993;-52
2022/03/19 11:27:24;;;;;;;;;;;22.10;34.50;;;;;;6316071;27;20345;-51
2022/03/19 11:30:27;;;;;;;;;;;22.00;34.50;;;;;;6320948;27;20033;-54
2022/03/19 11:33:31;;;;;;;;;;;22.20;34.50;;;;;;6321022;27;20155;-53
2022/03/19 11:36:53;;;;;;;;;;;22.10;34.40;;;;;;6317835;27;19934;-51
2022/03/19 11:40:04;;;;;;;;;;;22.20;34.40;;;;;;6300292;27;20472;-48
2022/03/19 11:43:05;;;;;;;;;;;22.50;34.50;;;;;;6292984;27;20314;-48
2022/03/19 11:46:09;;;;;;;;;;;22.40;34.50;;;;;;6318687;27;20155;-50
2022/03/19 11:49:11;;;;;;;;;;;22.20;34.10;;;;;;6299944;27;20271;-51
2022/03/19 11:52:15;;;;;;;;;;;22.30;34.40;;;;;;6317644;27;20297;-51
2022/03/19 11:55:17;;;;;;;;;;;22.60;34.40;;;;;;6318306;27;20682;-52
2022/03/19 11:58:24;;;;;;;;;;;22.50;34.40;;;;;;6316225;27;19931;-49
2022/03/19 12:01:38;;;;;;;;;;;22.20;34.20;;;;;;6317512;27;19966;-51
2022/03/19 12:04:42;;;;;;;;;;;22.40;34.20;;;;;;6322840;27;19945;-48
2022/03/19 12:07:44;;;;;;;;;;;22.20;34.10;;;;;;6301759;27;19938;-48
2022/03/19 12:10:54;;;;;;;;;;;22.20;34.10;;;;;;6319699;27;20274;-48
2022/03/19 12:13:56;;;;;;;;;;;22.80;34.50;;;;;;6321939;27;19974;-49
2022/03/19 12:17:13;;;;;;;;;;;22.60;34.30;;;;;;6320814;27;20046;-52
2022/03/19 12:20:16;;;;;;;;;;;22.30;34.20;;;;;;6303445;27;20353;-52
2022/03/19 12:23:18;;;;;;;;;;;22.50;34.20;;;;;;6317311;27;20565;-51
2022/03/19 12:26:22;;;;;;;;;;;22.40;34.30;;;;;;6323987;27;20256;-48
2022/03/19 12:29:30;;;;;;;;;;;22.70;34.30;;;;;;6300804;27;20300;-50
2022/03/19 12:32:43;;;;;;;;;;;22.30;34.10;;;;;;6322706;27;20517;-49
2022/03/19 12:35:46;;;;;;;;;;;22.80;34.40;;;;;;6321312;27;20981;-50
2022/03/19 12:38:50;;;;;;;;;;;22.20;34.00;;;;;;6318494;27;20011;-51
2022/03/19 12:41:53;;;;;;;;;;;23.30;34.70;;;;;;6300911;27;19939;-49
2022/03/19 12:45:07;;;;;;;;;;;22.80;34.30;;;;;;6319770;27;20260;-54
2022/03/19 12:48:10;;;;;;;;;;;23.20;34.50;;;;;;6318758;27;20246;-49
2022/03/19 12:51:21;;;;;;;;;;;22.70;34.40;;;;;;6319421;27;19938;-53
2022/03/19 12:54:25;;;;;;;;;;;22.70;34.40;;;;;;6321100;27;20481;-49
2022/03/19 12:57:31;;;;;;;;;;;22.80;34.40;;;;;;6299252;27;19927;-49
2022/03/19 13:00:32;;;;;;;;;;;22.80;34.40;;;;;;6297778;27;20338;-55
2022/03/19 13:03:34;;;;;;;;;;;23.10;34.60;;;;;;6315576;27;19951;-53
2022/03/19 13:06:36;;;;;;;;;;;22.90;34.50;;;;;;6316962;27;19930;-50
2022/03/19 13:09:40;;;;;;;;;;;22.30;34.10;;;;;;6315533;27;20532;-52
2022/03/19 13:12:42;;;;;;;;;;;22.70;34.40;;;;;;6319175;27;19957;-48
2022/03/19 13:15:49;;;;;;;;;;;22.90;34.50;;;;;;6315545;27;19938;-49
2022/03/19 13:18:56;;;;;;;;;;;22.90;34.30;;;;;;6316481;27;20031;-54
2022/03/19 13:21:58;;;;;;;;;;;23.20;34.50;;;;;;6313618;27;20172;-50
2022/03/19 13:24:59;;;;;;;;;;;23.00;34.40;;;;;;6317674;27;19973;-49
2022/03/19 13:28:02;;;;;;;;;;;22.70;34.30;;;;;;6317379;27;20512;-51
2022/03/19 13:31:03;;;;;;;;;;;22.60;34.10;;;;;;6299504;27;19974;-49
2022/03/19 13:34:05;;;;;;;;;;;22.40;34.20;;;;;;6298419;27;20203;-49
2022/03/19 13:37:07;;;;;;;;;;;22.80;34.40;;;;;;6314837;27;19927;-50
2022/03/19 13:40:11;;;;;;;;;;;22.90;34.40;;;;;;6314789;27;19962;-54
2022/03/19 13:43:12;;;;;;;;;;;22.60;34.20;;;;;;6302745;27;20067;-49
2022/03/19 13:46:15;;;;;;;;;;;23.10;34.50;;;;;;6303381;27;19970;-49
2022/03/19 13:49:17;;;;;;;;;;;23.00;34.40;;;;;;6312111;27;20857;-49
2022/03/19 13:52:27;;;;;;;;;;;22.60;34.20;;;;;;6313514;27;20058;-48
2022/03/19 13:55:37;;;;;;;;;;;22.50;34.10;;;;;;6315863;27;20993;-53
2022/03/19 13:58:39;;;;;;;;;;;23.10;34.40;;;;;;6308735;27;20042;-49
2022/03/19 14:01:41;;;;;;;;;;;23.00;34.40;;;;;;6317108;27;20253;-48
2022/03/19 14:04:42;;;;;;;;;;;22.90;34.40;;;;;;6313325;27;20423;-49
2022/03/19 14:07:45;;;;;;;;;;;23.00;34.50;;;;;;6316477;27;20377;-49
2022/03/19 14:10:49;;;;;;;;;;;23.10;34.60;;;;;;6315437;27;20771;-49
2022/03/19 14:13:50;;;;;;;;;;;23.10;34.50;;;;;;6314969;27;20305;-49
2022/03/19 14:16:55;;;;;;;;;;;23.10;34.60;;;;;;6316946;27;19931;-50
2022/03/19 14:19:57;;;;;;;;;;;23.10;34.40;;;;;;6314697;27;19935;-50
2022/03/19 14:22:58;;;;;;;;;;;23.00;34.40;;;;;;6306861;27;20061;-52
2022/03/19 14:26:00;;;;;;;;;;;23.10;34.40;;;;;;6316864;27;20233;-51
2022/03/19 14:29:02;;;;;;;;;;;22.90;34.40;;;;;;6314457;27;20033;-54
2022/03/19 14:32:04;;;;;;;;;;;22.70;34.30;;;;;;6311737;27;20046;-52
2022/03/19 14:35:25;;;;;;;;;;;22.60;34.10;;;;;;6309563;27;20159;-51
2022/03/19 14:38:41;;;;;;;;;;;23.00;34.30;;;;;;6305730;27;19933;-50
2022/03/19 14:41:42;;;;;;;;;;;23.10;34.50;;;;;;6308664;27;20151;-50
2022/03/19 14:44:45;;;;;;;;;;;23.00;34.50;;;;;;6295404;27;20461;-50
2022/03/19 14:47:46;;;;;;;;;;;23.00;34.30;;;;;;6312359;27;20326;-52
2022/03/19 14:50:49;;;;;;;;;;;22.90;34.50;;;;;;6313775;27;20363;-53
2022/03/19 14:53:52;;;;;;;;;;;22.80;34.30;;;;;;6309119;27;21527;-49
2022/03/19 14:56:53;;;;;;;;;;;23.00;34.40;;;;;;6312388;27;20049;-50
2022/03/19 14:59:54;;;;;;;;;;;22.90;34.50;;;;;;6308024;27;19931;-51
2022/03/19 15:02:57;;;;;;;;;;;23.30;34.60;;;;;;6314254;27;20014;-49
2022/03/19 15:05:59;;;;;;;;;;;22.90;34.30;;;;;;6312048;27;19927;-51
2022/03/19 15:09:00;;;;;;;;;;;22.90;34.40;;;;;;6310179;27;19991;-53
2022/03/19 15:12:02;;;;;;;;;;;23.00;34.40;;;;;;6314333;27;19970;-50
2022/03/19 15:15:04;;;;;;;;;;;23.10;34.40;;;;;;6313925;27;20573;-53
2022/03/19 15:18:07;;;;;;;;;;;23.20;34.40;;;;;;6312026;27;20745;-51
2022/03/19 15:21:08;;;;;;;;;;;23.20;34.60;;;;;;6311474;27;19934;-54
2022/03/19 15:24:10;;;;;;;;;;;23.10;34.50;;;;;;6311107;27;19931;-52
2022/03/19 15:27:12;;;;;;;;;;;22.70;34.30;;;;;;6310083;27;20389;-53
2022/03/19 15:30:14;;;;;;;;;;;22.70;34.20;;;;;;6313345;27;20426;-49
2022/03/19 15:33:15;;;;;;;;;;;23.20;34.50;;;;;;6306898;27;19950;-53
2022/03/19 15:36:18;;;;;;;;;;;23.30;34.60;;;;;;6320809;27;19947;-56
2022/03/19 15:39:19;;;;;;;;;;;23.30;34.70;;;;;;6321418;27;20350;-53
2022/03/19 15:42:21;;;;;;;;;;;23.20;34.50;;;;;;6311934;27;19931;-52
2022/03/19 15:45:23;;;;;;;;;;;23.00;34.50;;;;;;6314110;27;19977;-51
2022/03/19 15:48:24;;;;;;;;;;;23.40;34.70;;;;;;6325423;27;19999;-53
2022/03/19 15:51:26;;;;;;;;;;;23.00;34.50;;;;;;6323877;27;19922;-54
2022/03/19 15:54:28;;;;;;;;;;;23.10;34.60;;;;;;6326499;27;20045;-53
2022/03/19 15:57:29;;;;;;;;;;;23.40;34.70;;;;;;6329828;27;20859;-51
2022/03/19 16:00:30;;;;;;;;;;;23.30;34.60;;;;;;6325616;27;21701;-50
2022/03/19 16:03:32;;;;;;;;;;;23.40;34.60;;;;;;6326804;27;20803;-50
2022/03/19 16:06:34;;;;;;;;;;;22.60;34.20;;;;;;6307827;27;19931;-55
2022/03/19 16:09:36;;;;;;;;;;;23.20;34.70;;;;;;6324846;27;19983;-48
2022/03/19 16:12:41;;;;;;;;;;;22.90;34.50;;;;;;6322383;27;19931;-54
2022/03/19 16:15:43;;;;;;;;;;;23.10;34.60;;;;;;6329910;27;20631;-52
2022/03/19 16:18:47;;;;;;;;;;;23.20;34.70;;;;;;6327373;27;19931;-52
2022/03/19 16:21:48;;;;;;;;;;;23.40;34.90;;;;;;6324135;27;19973;-52
2022/03/19 16:24:50;;;;;;;;;;;22.80;34.40;;;;;;6320029;27;21190;-53
2022/03/19 16:27:53;;;;;;;;;;;23.10;34.60;;;;;;6310115;27;20659;-52
2022/03/19 16:30:54;;;;;;;;;;;23.70;35.00;;;;;;6327033;27;20264;-51
2022/03/19 16:33:56;;;;;;;;;;;23.40;34.90;;;;;;6309919;27;20043;-51
2022/03/19 16:36:57;;;;;;;;;;;22.90;34.50;;;;;;6289865;27;20186;-51
2022/03/19 16:40:00;;;;;;;;;;;23.20;34.80;;;;;;6312375;27;20531;-52
2022/03/19 16:43:07;;;;;;;;;;;22.90;34.60;;;;;;6313785;27;20118;-49
2022/03/19 16:46:09;;;;;;;;;;;23.60;34.90;;;;;;6289242;27;20181;-50
2022/03/19 16:49:10;;;;;;;;;;;23.50;34.90;;;;;;6316702;27;20089;-49
2022/03/19 16:52:12;;;;;;;;;;;23.30;34.90;;;;;;6311917;27;20264;-60
2022/03/19 16:55:14;;;;;;;;;;;23.00;34.60;;;;;;6321005;27;20045;-53
2022/03/19 16:58:15;;;;;;;;;;;23.20;34.80;;;;;;6314640;27;20798;-52
2022/03/19 17:01:17;;;;;;;;;;;23.10;34.80;;;;;;6314152;27;20046;-49
2022/03/19 17:04:18;;;;;;;;;;;23.20;34.80;;;;;;6316778;27;20375;-51
2022/03/19 17:07:20;;;;;;;;;;;23.30;34.90;;;;;;6296677;27;19978;-50
2022/03/19 17:10:22;;;;;;;;;;;23.30;34.90;;;;;;6309909;27;20042;-48
2022/03/19 17:13:24;;;;;;;;;;;23.40;34.90;;;;;;6309285;27;20735;-49
2022/03/19 17:16:25;;;;;;;;;;;23.40;34.90;;;;;;6312930;27;20486;-50
2022/03/19 17:19:27;;;;;;;;;;;23.10;34.70;;;;;;6315898;27;19989;-51
2022/03/19 17:22:28;;;;;;;;;;;23.10;34.80;;;;;;6315231;27;20477;-51
2022/03/19 17:25:30;;;;;;;;;;;23.50;34.90;;;;;;6313086;27;20814;-52
2022/03/19 17:28:31;;;;;;;;;;;23.30;35.00;;;;;;6313884;27;20526;-51
2022/03/19 17:31:33;;;;;;;;;;;23.20;35.00;;;;;;6302254;27;19938;-51
2022/03/19 17:34:35;;;;;;;;;;;23.40;35.00;;;;;;6305346;27;20034;-52
2022/03/19 17:37:36;;;;;;;;;;;23.20;34.90;;;;;;6312761;27;20127;-50
2022/03/19 17:40:39;;;;;;;;;;;23.50;35.10;;;;;;6320681;27;19974;-50
2022/03/19 17:43:40;;;;;;;;;;;23.00;34.80;;;;;;6315625;27;20511;-51
2022/03/19 17:46:42;;;;;;;;;;;23.20;34.90;;;;;;6309519;27;19931;-50
2022/03/19 17:49:46;;;;;;;;;;;23.50;35.10;;;;;;6313659;27;19937;-51
2022/03/19 17:52:49;;;;;;;;;;;23.40;35.10;;;;;;6304898;27;19973;-50
2022/03/19 17:55:51;;;;;;;;;;;23.00;34.90;;;;;;6312275;27;20041;-48
2022/03/19 17:58:53;;;;;;;;;;;23.50;35.10;;;;;;6311056;27;20279;-51
2022/03/19 18:01:55;;;;;;;;;;;22.90;35.50;;;;;;6313236;27;19938;-53
2022/03/19 18:04:56;;;;;;;;;;;23.30;35.00;;;;;;6313777;27;20105;-51